sensor_id;sensor_type;location;lat;lon;timestamp;P1;durP1;ratioP1;P2;durP2;ratioP2
13981;SDS011;7065;50.880;5.502;2023-03-20T00:01:22;17.50;;;13.13;;
13981;SDS011;7065;50.880;5.502;2023-03-20T00:03:50;19.80;;;14.00;;
13981;SDS011;7065;50.880;5.502;2023-03-20T00:06:17;22.55;;;14.05;;
13981;SDS011;7065;50.880;5.502;2023-03-20T00:08:45;18.40;;;13.90;;
13981;SDS011;7065;50.880;5.502;2023-03-20T00:11:29;20.67;;;13.13;;
13981;SDS011;7065;50.880;5.502;2023-03-20T00:14:00;18.92;;;13.18;;
13981;SDS011;7065;50.880;5.502;2023-03-20T00:16:46;22.45;;;14.93;;
13981;SDS011;7065;50.880;5.502;2023-03-20T00:19:14;22.13;;;14.65;;
13981;SDS011;7065;50.880;5.502;2023-03-20T00:21:46;19.55;;;14.27;;
13981;SDS011;7065;50.880;5.502;2023-03-20T00:24:12;22.10;;;14.30;;
13981;SDS011;7065;50.880;5.502;2023-03-20T00:26:39;19.65;;;13.10;;
13981;SDS011;7065;50.880;5.502;2023-03-20T00:29:06;18.10;;;12.18;;
13981;SDS011;7065;50.880;5.502;2023-03-20T00:31:37;20.45;;;12.88;;
13981;SDS011;7065;50.880;5.502;2023-03-20T00:34:04;16.13;;;11.95;;
13981;SDS011;7065;50.880;5.502;2023-03-20T00:36:34;15.43;;;9.90;;
13981;SDS011;7065;50.880;5.502;2023-03-20T00:39:00;16.35;;;11.05;;
13981;SDS011;7065;50.880;5.502;2023-03-20T00:46:40;14.13;;;10.27;;
13981;SDS011;7065;50.880;5.502;2023-03-20T00:49:08;18.60;;;12.93;;
13981;SDS011;7065;50.880;5.502;2023-03-20T00:51:35;22.10;;;13.98;;
13981;SDS011;7065;50.880;5.502;2023-03-20T00:54:04;18.33;;;13.48;;
13981;SDS011;7065;50.880;5.502;2023-03-20T00:56:41;21.15;;;14.30;;
13981;SDS011;7065;50.880;5.502;2023-03-20T00:59:34;19.63;;;13.77;;
13981;SDS011;7065;50.880;5.502;2023-03-20T01:02:03;19.25;;;13.80;;
13981;SDS011;7065;50.880;5.502;2023-03-20T01:04:36;23.75;;;15.43;;
13981;SDS011;7065;50.880;5.502;2023-03-20T01:07:03;19.23;;;14.18;;
13981;SDS011;7065;50.880;5.502;2023-03-20T01:09:30;21.25;;;14.38;;
13981;SDS011;7065;50.880;5.502;2023-03-20T01:11:57;21.02;;;14.35;;
13981;SDS011;7065;50.880;5.502;2023-03-20T01:14:24;21.50;;;13.95;;
13981;SDS011;7065;50.880;5.502;2023-03-20T01:16:50;19.95;;;13.57;;
13981;SDS011;7065;50.880;5.502;2023-03-20T01:19:16;20.42;;;13.57;;
13981;SDS011;7065;50.880;5.502;2023-03-20T01:21:42;18.75;;;12.57;;
13981;SDS011;7065;50.880;5.502;2023-03-20T01:24:08;22.60;;;13.55;;
13981;SDS011;7065;50.880;5.502;2023-03-20T01:26:35;18.95;;;13.05;;
13981;SDS011;7065;50.880;5.502;2023-03-20T01:29:03;19.92;;;12.32;;
13981;SDS011;7065;50.880;5.502;2023-03-20T01:31:36;18.80;;;12.20;;
13981;SDS011;7065;50.880;5.502;2023-03-20T01:34:02;16.10;;;11.27;;
13981;SDS011;7065;50.880;5.502;2023-03-20T01:36:27;16.20;;;11.30;;
13981;SDS011;7065;50.880;5.502;2023-03-20T01:38:56;16.60;;;10.52;;
13981;SDS011;7065;50.880;5.502;2023-03-20T01:41:23;16.88;;;11.45;;
13981;SDS011;7065;50.880;5.502;2023-03-20T01:43:50;15.85;;;10.88;;
13981;SDS011;7065;50.880;5.502;2023-03-20T01:51:50;15.88;;;10.15;;
13981;SDS011;7065;50.880;5.502;2023-03-20T01:54:17;18.38;;;10.85;;
13981;SDS011;7065;50.880;5.502;2023-03-20T01:56:45;14.85;;;10.75;;
13981;SDS011;7065;50.880;5.502;2023-03-20T01:59:19;14.10;;;10.43;;
13981;SDS011;7065;50.880;5.502;2023-03-20T02:01:46;15.57;;;10.35;;
13981;SDS011;7065;50.880;5.502;2023-03-20T02:04:13;15.27;;;10.35;;
13981;SDS011;7065;50.880;5.502;2023-03-20T02:06:41;15.82;;;10.00;;
13981;SDS011;7065;50.880;5.502;2023-03-20T02:09:09;16.05;;;10.02;;
13981;SDS011;7065;50.880;5.502;2023-03-20T02:11:35;13.43;;;9.23;;
13981;SDS011;7065;50.880;5.502;2023-03-20T02:14:03;14.90;;;10.60;;
13981;SDS011;7065;50.880;5.502;2023-03-20T02:16:30;15.40;;;9.82;;
13981;SDS011;7065;50.880;5.502;2023-03-20T02:18:56;15.50;;;10.63;;
13981;SDS011;7065;50.880;5.502;2023-03-20T02:32:03;16.02;;;9.63;;
13981;SDS011;7065;50.880;5.502;2023-03-20T02:41:14;16.15;;;9.00;;
13981;SDS011;7065;50.880;5.502;2023-03-20T02:43:59;17.30;;;8.60;;
13981;SDS011;7065;50.880;5.502;2023-03-20T02:46:41;15.63;;;9.07;;
13981;SDS011;7065;50.880;5.502;2023-03-20T02:54:33;14.40;;;9.20;;
13981;SDS011;7065;50.880;5.502;2023-03-20T02:57:04;12.73;;;9.02;;
13981;SDS011;7065;50.880;5.502;2023-03-20T03:02:08;15.02;;;8.77;;
13981;SDS011;7065;50.880;5.502;2023-03-20T03:04:41;14.57;;;9.60;;
13981;SDS011;7065;50.880;5.502;2023-03-20T03:07:14;13.50;;;8.73;;
13981;SDS011;7065;50.880;5.502;2023-03-20T03:09:47;11.80;;;8.20;;
13981;SDS011;7065;50.880;5.502;2023-03-20T03:12:18;11.30;;;8.07;;
13981;SDS011;7065;50.880;5.502;2023-03-20T03:14:48;14.05;;;8.32;;
13981;SDS011;7065;50.880;5.502;2023-03-20T03:17:22;11.45;;;8.00;;
13981;SDS011;7065;50.880;5.502;2023-03-20T03:19:51;11.80;;;8.20;;
13981;SDS011;7065;50.880;5.502;2023-03-20T03:22:21;12.00;;;8.32;;
13981;SDS011;7065;50.880;5.502;2023-03-20T03:24:49;13.93;;;8.85;;
13981;SDS011;7065;50.880;5.502;2023-03-20T03:29:55;11.40;;;8.13;;
13981;SDS011;7065;50.880;5.502;2023-03-20T03:34:59;13.63;;;7.85;;
13981;SDS011;7065;50.880;5.502;2023-03-20T03:37:37;11.27;;;7.78;;
13981;SDS011;7065;50.880;5.502;2023-03-20T03:45:51;13.35;;;7.32;;
13981;SDS011;7065;50.880;5.502;2023-03-20T03:48:24;11.10;;;8.13;;
13981;SDS011;7065;50.880;5.502;2023-03-20T03:50:55;12.10;;;7.50;;
13981;SDS011;7065;50.880;5.502;2023-03-20T03:53:34;10.85;;;7.88;;
13981;SDS011;7065;50.880;5.502;2023-03-20T03:56:05;13.25;;;8.38;;
13981;SDS011;7065;50.880;5.502;2023-03-20T03:58:36;12.13;;;8.27;;
13981;SDS011;7065;50.880;5.502;2023-03-20T04:01:07;11.13;;;8.30;;
13981;SDS011;7065;50.880;5.502;2023-03-20T04:03:39;14.35;;;9.02;;
13981;SDS011;7065;50.880;5.502;2023-03-20T04:06:08;12.48;;;8.80;;
13981;SDS011;7065;50.880;5.502;2023-03-20T04:08:38;12.75;;;9.27;;
13981;SDS011;7065;50.880;5.502;2023-03-20T04:11:05;14.65;;;9.68;;
13981;SDS011;7065;50.880;5.502;2023-03-20T04:13:31;15.98;;;8.98;;
13981;SDS011;7065;50.880;5.502;2023-03-20T04:15:57;15.07;;;9.15;;
13981;SDS011;7065;50.880;5.502;2023-03-20T04:18:22;14.40;;;9.45;;
13981;SDS011;7065;50.880;5.502;2023-03-20T04:20:48;12.48;;;9.25;;
13981;SDS011;7065;50.880;5.502;2023-03-20T04:23:15;16.08;;;8.93;;
13981;SDS011;7065;50.880;5.502;2023-03-20T04:25:41;14.18;;;9.45;;
13981;SDS011;7065;50.880;5.502;2023-03-20T04:28:07;12.40;;;8.95;;
13981;SDS011;7065;50.880;5.502;2023-03-20T04:30:34;12.00;;;9.20;;
13981;SDS011;7065;50.880;5.502;2023-03-20T04:33:01;17.83;;;11.32;;
13981;SDS011;7065;50.880;5.502;2023-03-20T04:35:26;15.40;;;10.00;;
13981;SDS011;7065;50.880;5.502;2023-03-20T04:37:52;18.77;;;12.13;;
13981;SDS011;7065;50.880;5.502;2023-03-20T04:40:18;18.42;;;11.38;;
13981;SDS011;7065;50.880;5.502;2023-03-20T04:42:43;18.38;;;11.25;;
13981;SDS011;7065;50.880;5.502;2023-03-20T04:45:10;16.98;;;12.07;;
13981;SDS011;7065;50.880;5.502;2023-03-20T04:47:36;21.42;;;13.07;;
13981;SDS011;7065;50.880;5.502;2023-03-20T04:50:01;20.77;;;14.00;;
13981;SDS011;7065;50.880;5.502;2023-03-20T04:52:27;23.33;;;14.18;;
13981;SDS011;7065;50.880;5.502;2023-03-20T04:54:53;19.42;;;13.20;;
13981;SDS011;7065;50.880;5.502;2023-03-20T04:57:18;17.85;;;13.07;;
13981;SDS011;7065;50.880;5.502;2023-03-20T04:59:44;17.83;;;11.30;;
13981;SDS011;7065;50.880;5.502;2023-03-20T05:02:10;19.17;;;11.88;;
13981;SDS011;7065;50.880;5.502;2023-03-20T05:04:39;17.73;;;12.25;;
13981;SDS011;7065;50.880;5.502;2023-03-20T05:07:06;17.70;;;11.40;;
13981;SDS011;7065;50.880;5.502;2023-03-20T05:09:32;18.98;;;11.65;;
13981;SDS011;7065;50.880;5.502;2023-03-20T05:11:58;20.13;;;12.75;;
13981;SDS011;7065;50.880;5.502;2023-03-20T05:14:24;18.60;;;12.15;;
13981;SDS011;7065;50.880;5.502;2023-03-20T05:16:50;21.92;;;13.32;;
13981;SDS011;7065;50.880;5.502;2023-03-20T05:19:16;16.52;;;11.65;;
13981;SDS011;7065;50.880;5.502;2023-03-20T05:21:42;18.45;;;12.25;;
13981;SDS011;7065;50.880;5.502;2023-03-20T05:24:07;20.13;;;12.95;;
13981;SDS011;7065;50.880;5.502;2023-03-20T05:26:33;19.85;;;12.15;;
13981;SDS011;7065;50.880;5.502;2023-03-20T05:28:59;20.30;;;12.07;;
13981;SDS011;7065;50.880;5.502;2023-03-20T05:31:25;22.20;;;12.90;;
13981;SDS011;7065;50.880;5.502;2023-03-20T05:33:50;19.73;;;12.48;;
13981;SDS011;7065;50.880;5.502;2023-03-20T05:36:16;20.90;;;11.75;;
13981;SDS011;7065;50.880;5.502;2023-03-20T05:38:42;22.42;;;12.32;;
13981;SDS011;7065;50.880;5.502;2023-03-20T05:41:07;19.45;;;12.00;;
13981;SDS011;7065;50.880;5.502;2023-03-20T05:43:33;19.55;;;11.85;;
13981;SDS011;7065;50.880;5.502;2023-03-20T05:45:59;19.52;;;11.38;;
13981;SDS011;7065;50.880;5.502;2023-03-20T05:48:24;21.45;;;12.02;;
13981;SDS011;7065;50.880;5.502;2023-03-20T05:50:50;20.27;;;11.88;;
13981;SDS011;7065;50.880;5.502;2023-03-20T05:53:16;19.08;;;11.20;;
13981;SDS011;7065;50.880;5.502;2023-03-20T05:55:42;21.75;;;12.27;;
13981;SDS011;7065;50.880;5.502;2023-03-20T05:58:09;19.60;;;11.57;;
13981;SDS011;7065;50.880;5.502;2023-03-20T06:00:35;19.08;;;11.95;;
13981;SDS011;7065;50.880;5.502;2023-03-20T06:03:02;20.23;;;11.98;;
13981;SDS011;7065;50.880;5.502;2023-03-20T06:05:30;21.40;;;11.95;;
13981;SDS011;7065;50.880;5.502;2023-03-20T06:07:57;20.88;;;12.18;;
13981;SDS011;7065;50.880;5.502;2023-03-20T06:10:22;21.80;;;11.13;;
13981;SDS011;7065;50.880;5.502;2023-03-20T06:12:48;18.33;;;11.05;;
13981;SDS011;7065;50.880;5.502;2023-03-20T06:15:14;19.65;;;12.38;;
13981;SDS011;7065;50.880;5.502;2023-03-20T06:17:40;20.85;;;11.95;;
13981;SDS011;7065;50.880;5.502;2023-03-20T06:20:05;19.30;;;11.65;;
13981;SDS011;7065;50.880;5.502;2023-03-20T06:22:32;17.15;;;10.95;;
13981;SDS011;7065;50.880;5.502;2023-03-20T06:24:58;23.05;;;11.90;;
13981;SDS011;7065;50.880;5.502;2023-03-20T06:27:23;22.20;;;11.70;;
13981;SDS011;7065;50.880;5.502;2023-03-20T06:29:49;19.90;;;11.38;;
13981;SDS011;7065;50.880;5.502;2023-03-20T06:32:16;26.88;;;11.95;;
13981;SDS011;7065;50.880;5.502;2023-03-20T06:34:41;21.40;;;12.38;;
13981;SDS011;7065;50.880;5.502;2023-03-20T06:37:07;22.83;;;12.05;;
13981;SDS011;7065;50.880;5.502;2023-03-20T06:39:33;21.98;;;12.30;;
13981;SDS011;7065;50.880;5.502;2023-03-20T06:41:59;18.90;;;10.63;;
13981;SDS011;7065;50.880;5.502;2023-03-20T06:44:25;18.88;;;11.07;;
13981;SDS011;7065;50.880;5.502;2023-03-20T06:46:51;19.67;;;10.95;;
13981;SDS011;7065;50.880;5.502;2023-03-20T06:49:17;24.08;;;10.93;;
13981;SDS011;7065;50.880;5.502;2023-03-20T06:51:42;20.75;;;10.82;;
13981;SDS011;7065;50.880;5.502;2023-03-20T06:54:09;17.33;;;10.52;;
13981;SDS011;7065;50.880;5.502;2023-03-20T06:56:35;19.15;;;10.77;;
13981;SDS011;7065;50.880;5.502;2023-03-20T06:59:01;19.25;;;10.95;;
13981;SDS011;7065;50.880;5.502;2023-03-20T07:01:26;20.20;;;10.93;;
13981;SDS011;7065;50.880;5.502;2023-03-20T07:03:52;23.58;;;10.82;;
13981;SDS011;7065;50.880;5.502;2023-03-20T07:06:18;20.27;;;11.05;;
13981;SDS011;7065;50.880;5.502;2023-03-20T07:08:45;18.77;;;10.27;;
13981;SDS011;7065;50.880;5.502;2023-03-20T07:11:12;20.75;;;10.57;;
13981;SDS011;7065;50.880;5.502;2023-03-20T07:13:38;22.58;;;11.80;;
13981;SDS011;7065;50.880;5.502;2023-03-20T07:16:04;14.98;;;9.57;;
13981;SDS011;7065;50.880;5.502;2023-03-20T07:18:30;17.38;;;10.07;;
13981;SDS011;7065;50.880;5.502;2023-03-20T07:20:57;18.55;;;9.90;;
13981;SDS011;7065;50.880;5.502;2023-03-20T07:23:26;15.35;;;10.27;;
13981;SDS011;7065;50.880;5.502;2023-03-20T07:25:53;16.48;;;9.68;;
13981;SDS011;7065;50.880;5.502;2023-03-20T07:28:19;15.32;;;8.98;;
13981;SDS011;7065;50.880;5.502;2023-03-20T07:30:45;14.98;;;8.70;;
13981;SDS011;7065;50.880;5.502;2023-03-20T07:33:11;12.98;;;7.93;;
13981;SDS011;7065;50.880;5.502;2023-03-20T07:35:36;15.45;;;8.40;;
13981;SDS011;7065;50.880;5.502;2023-03-20T07:38:03;12.85;;;8.35;;
13981;SDS011;7065;50.880;5.502;2023-03-20T07:40:29;13.43;;;8.20;;
13981;SDS011;7065;50.880;5.502;2023-03-20T07:42:56;13.40;;;7.85;;
13981;SDS011;7065;50.880;5.502;2023-03-20T07:45:22;14.57;;;7.30;;
13981;SDS011;7065;50.880;5.502;2023-03-20T07:47:47;16.85;;;7.20;;
13981;SDS011;7065;50.880;5.502;2023-03-20T07:50:13;13.52;;;6.32;;
13981;SDS011;7065;50.880;5.502;2023-03-20T07:52:43;10.23;;;6.13;;
13981;SDS011;7065;50.880;5.502;2023-03-20T07:55:12;12.43;;;6.05;;
13981;SDS011;7065;50.880;5.502;2023-03-20T07:57:39;11.23;;;6.55;;
13981;SDS011;7065;50.880;5.502;2023-03-20T08:00:05;12.00;;;5.88;;
13981;SDS011;7065;50.880;5.502;2023-03-20T08:02:31;11.63;;;5.53;;
13981;SDS011;7065;50.880;5.502;2023-03-20T08:04:58;11.02;;;6.07;;
13981;SDS011;7065;50.880;5.502;2023-03-20T08:07:24;12.05;;;5.88;;
13981;SDS011;7065;50.880;5.502;2023-03-20T08:09:50;10.07;;;5.60;;
13981;SDS011;7065;50.880;5.502;2023-03-20T08:12:16;12.88;;;5.60;;
13981;SDS011;7065;50.880;5.502;2023-03-20T08:14:42;11.43;;;5.30;;
13981;SDS011;7065;50.880;5.502;2023-03-20T08:17:08;10.68;;;5.25;;
13981;SDS011;7065;50.880;5.502;2023-03-20T08:19:34;9.25;;;5.30;;
13981;SDS011;7065;50.880;5.502;2023-03-20T08:22:00;10.82;;;5.32;;
13981;SDS011;7065;50.880;5.502;2023-03-20T08:24:26;9.30;;;5.72;;
13981;SDS011;7065;50.880;5.502;2023-03-20T08:26:52;11.07;;;5.65;;
13981;SDS011;7065;50.880;5.502;2023-03-20T08:29:17;12.68;;;5.95;;
13981;SDS011;7065;50.880;5.502;2023-03-20T08:31:44;9.93;;;5.38;;
13981;SDS011;7065;50.880;5.502;2023-03-20T08:34:10;9.20;;;5.10;;
13981;SDS011;7065;50.880;5.502;2023-03-20T08:36:35;7.90;;;5.03;;
13981;SDS011;7065;50.880;5.502;2023-03-20T08:39:03;9.57;;;4.88;;
13981;SDS011;7065;50.880;5.502;2023-03-20T08:41:31;8.57;;;4.82;;
13981;SDS011;7065;50.880;5.502;2023-03-20T08:43:58;7.03;;;3.45;;
13981;SDS011;7065;50.880;5.502;2023-03-20T08:46:24;6.50;;;3.70;;
13981;SDS011;7065;50.880;5.502;2023-03-20T08:48:49;10.02;;;4.50;;
13981;SDS011;7065;50.880;5.502;2023-03-20T08:51:15;8.82;;;4.03;;
13981;SDS011;7065;50.880;5.502;2023-03-20T08:53:41;11.07;;;4.57;;
13981;SDS011;7065;50.880;5.502;2023-03-20T08:56:07;10.00;;;4.15;;
13981;SDS011;7065;50.880;5.502;2023-03-20T08:58:34;9.38;;;4.88;;
13981;SDS011;7065;50.880;5.502;2023-03-20T09:01:05;8.18;;;4.03;;
13981;SDS011;7065;50.880;5.502;2023-03-20T09:03:32;8.50;;;4.70;;
13981;SDS011;7065;50.880;5.502;2023-03-20T09:05:58;9.63;;;4.72;;
13981;SDS011;7065;50.880;5.502;2023-03-20T09:08:24;10.82;;;4.88;;
13981;SDS011;7065;50.880;5.502;2023-03-20T09:10:50;11.40;;;5.15;;
13981;SDS011;7065;50.880;5.502;2023-03-20T09:13:16;10.18;;;4.93;;
13981;SDS011;7065;50.880;5.502;2023-03-20T09:15:42;11.85;;;4.80;;
13981;SDS011;7065;50.880;5.502;2023-03-20T09:18:08;8.52;;;4.65;;
13981;SDS011;7065;50.880;5.502;2023-03-20T09:20:34;12.70;;;5.22;;
13981;SDS011;7065;50.880;5.502;2023-03-20T09:23:00;8.85;;;4.20;;
13981;SDS011;7065;50.880;5.502;2023-03-20T09:25:27;8.10;;;4.57;;
13981;SDS011;7065;50.880;5.502;2023-03-20T09:27:53;11.02;;;4.70;;
13981;SDS011;7065;50.880;5.502;2023-03-20T09:30:19;9.88;;;4.60;;
13981;SDS011;7065;50.880;5.502;2023-03-20T09:32:50;9.50;;;4.75;;
13981;SDS011;7065;50.880;5.502;2023-03-20T09:35:16;11.35;;;4.65;;
13981;SDS011;7065;50.880;5.502;2023-03-20T09:37:42;9.82;;;4.85;;
13981;SDS011;7065;50.880;5.502;2023-03-20T09:40:12;9.93;;;4.82;;
13981;SDS011;7065;50.880;5.502;2023-03-20T09:43:05;13.27;;;4.80;;
13981;SDS011;7065;50.880;5.502;2023-03-20T09:45:40;8.13;;;3.95;;
13981;SDS011;7065;50.880;5.502;2023-03-20T09:48:12;11.70;;;4.88;;
13981;SDS011;7065;50.880;5.502;2023-03-20T09:50:49;8.98;;;4.10;;
13981;SDS011;7065;50.880;5.502;2023-03-20T09:55:51;8.05;;;3.65;;
13981;SDS011;7065;50.880;5.502;2023-03-20T09:58:31;10.13;;;5.07;;
13981;SDS011;7065;50.880;5.502;2023-03-20T10:01:00;10.25;;;4.57;;
13981;SDS011;7065;50.880;5.502;2023-03-20T10:03:41;10.75;;;4.28;;
13981;SDS011;7065;50.880;5.502;2023-03-20T10:06:13;10.45;;;4.57;;
13981;SDS011;7065;50.880;5.502;2023-03-20T10:08:40;6.57;;;3.90;;
13981;SDS011;7065;50.880;5.502;2023-03-20T10:14:01;11.85;;;4.57;;
13981;SDS011;7065;50.880;5.502;2023-03-20T10:20:18;10.48;;;4.45;;
13981;SDS011;7065;50.880;5.502;2023-03-20T10:22:45;6.85;;;4.15;;
13981;SDS011;7065;50.880;5.502;2023-03-20T10:25:34;7.82;;;4.03;;
13981;SDS011;7065;50.880;5.502;2023-03-20T10:28:08;8.27;;;4.20;;
13981;SDS011;7065;50.880;5.502;2023-03-20T10:33:23;7.93;;;4.00;;
13981;SDS011;7065;50.880;5.502;2023-03-20T10:38:46;8.13;;;4.50;;
13981;SDS011;7065;50.880;5.502;2023-03-20T10:41:20;10.48;;;5.18;;
13981;SDS011;7065;50.880;5.502;2023-03-20T10:43:50;12.70;;;4.70;;
13981;SDS011;7065;50.880;5.502;2023-03-20T10:46:22;9.43;;;4.60;;
13981;SDS011;7065;50.880;5.502;2023-03-20T10:49:13;8.63;;;4.97;;
13981;SDS011;7065;50.880;5.502;2023-03-20T10:57:08;6.93;;;4.50;;
13981;SDS011;7065;50.880;5.502;2023-03-20T10:59:47;8.73;;;4.25;;
13981;SDS011;7065;50.880;5.502;2023-03-20T11:02:20;9.43;;;4.68;;
13981;SDS011;7065;50.880;5.502;2023-03-20T11:04:47;11.23;;;4.88;;
13981;SDS011;7065;50.880;5.502;2023-03-20T11:12:33;12.68;;;4.35;;
13981;SDS011;7065;50.880;5.502;2023-03-20T11:15:02;8.98;;;4.15;;
13981;SDS011;7065;50.880;5.502;2023-03-20T11:17:38;10.18;;;4.60;;
13981;SDS011;7065;50.880;5.502;2023-03-20T11:20:04;10.77;;;4.22;;
13981;SDS011;7065;50.880;5.502;2023-03-20T11:22:30;8.45;;;3.70;;
13981;SDS011;7065;50.880;5.502;2023-03-20T11:24:57;8.63;;;4.38;;
13981;SDS011;7065;50.880;5.502;2023-03-20T11:27:29;9.38;;;4.80;;
13981;SDS011;7065;50.880;5.502;2023-03-20T11:29:57;8.77;;;4.30;;
13981;SDS011;7065;50.880;5.502;2023-03-20T11:32:33;8.30;;;4.25;;
13981;SDS011;7065;50.880;5.502;2023-03-20T11:37:50;10.75;;;4.13;;
13981;SDS011;7065;50.880;5.502;2023-03-20T11:45:22;10.38;;;4.50;;
13981;SDS011;7065;50.880;5.502;2023-03-20T11:47:50;13.20;;;4.82;;
13981;SDS011;7065;50.880;5.502;2023-03-20T11:50:25;9.38;;;4.18;;
13981;SDS011;7065;50.880;5.502;2023-03-20T11:52:57;8.55;;;4.38;;
13981;SDS011;7065;50.880;5.502;2023-03-20T11:55:28;8.45;;;4.20;;
13981;SDS011;7065;50.880;5.502;2023-03-20T11:57:57;8.60;;;3.88;;
13981;SDS011;7065;50.880;5.502;2023-03-20T12:00:27;9.95;;;3.60;;
13981;SDS011;7065;50.880;5.502;2023-03-20T12:03:05;9.02;;;3.60;;
13981;SDS011;7065;50.880;5.502;2023-03-20T12:06:14;9.80;;;4.03;;
13981;SDS011;7065;50.880;5.502;2023-03-20T12:08:43;7.57;;;4.20;;
13981;SDS011;7065;50.880;5.502;2023-03-20T12:14:19;6.25;;;3.60;;
13981;SDS011;7065;50.880;5.502;2023-03-20T12:20:01;10.25;;;4.00;;
13981;SDS011;7065;50.880;5.502;2023-03-20T12:22:36;11.30;;;3.80;;
13981;SDS011;7065;50.880;5.502;2023-03-20T12:25:18;10.27;;;4.22;;
13981;SDS011;7065;50.880;5.502;2023-03-20T12:33:45;6.60;;;3.38;;
13981;SDS011;7065;50.880;5.502;2023-03-20T12:36:15;9.70;;;3.67;;
13981;SDS011;7065;50.880;5.502;2023-03-20T12:38:42;8.00;;;3.13;;
13981;SDS011;7065;50.880;5.502;2023-03-20T12:44:07;9.13;;;3.63;;
13981;SDS011;7065;50.880;5.502;2023-03-20T12:49:48;7.45;;;2.92;;
13981;SDS011;7065;50.880;5.502;2023-03-20T13:26:50;8.15;;;3.60;;
13981;SDS011;7065;50.880;5.502;2023-03-20T13:37:42;10.48;;;3.38;;
13981;SDS011;7065;50.880;5.502;2023-03-20T13:40:19;7.60;;;2.70;;
13981;SDS011;7065;50.880;5.502;2023-03-20T13:42:49;8.25;;;3.10;;
13981;SDS011;7065;50.880;5.502;2023-03-20T13:45:37;7.18;;;2.90;;
13981;SDS011;7065;50.880;5.502;2023-03-20T13:50:55;5.93;;;3.00;;
13981;SDS011;7065;50.880;5.502;2023-03-20T14:04:36;6.93;;;3.05;;
13981;SDS011;7065;50.880;5.502;2023-03-20T14:07:24;6.15;;;3.00;;
13981;SDS011;7065;50.880;5.502;2023-03-20T14:09:52;7.28;;;2.55;;
13981;SDS011;7065;50.880;5.502;2023-03-20T14:12:19;7.07;;;2.80;;
13981;SDS011;7065;50.880;5.502;2023-03-20T14:14:55;7.20;;;2.47;;
13981;SDS011;7065;50.880;5.502;2023-03-20T14:17:28;9.95;;;3.08;;
13981;SDS011;7065;50.880;5.502;2023-03-20T14:19:55;5.93;;;2.85;;
13981;SDS011;7065;50.880;5.502;2023-03-20T14:22:28;5.75;;;2.55;;
13981;SDS011;7065;50.880;5.502;2023-03-20T14:24:59;5.03;;;3.05;;
13981;SDS011;7065;50.880;5.502;2023-03-20T14:27:34;7.30;;;3.30;;
13981;SDS011;7065;50.880;5.502;2023-03-20T14:32:59;8.40;;;2.92;;
13981;SDS011;7065;50.880;5.502;2023-03-20T14:41:01;5.80;;;2.78;;
13981;SDS011;7065;50.880;5.502;2023-03-20T14:49:24;6.57;;;2.90;;
13981;SDS011;7065;50.880;5.502;2023-03-20T14:54:53;7.07;;;3.22;;
13981;SDS011;7065;50.880;5.502;2023-03-20T14:57:30;5.25;;;2.70;;
13981;SDS011;7065;50.880;5.502;2023-03-20T14:59:58;8.60;;;3.78;;
13981;SDS011;7065;50.880;5.502;2023-03-20T15:02:29;9.70;;;3.10;;
13981;SDS011;7065;50.880;5.502;2023-03-20T15:04:58;7.55;;;2.70;;
13981;SDS011;7065;50.880;5.502;2023-03-20T15:07:28;4.00;;;2.47;;
13981;SDS011;7065;50.880;5.502;2023-03-20T15:09:58;9.13;;;3.13;;
13981;SDS011;7065;50.880;5.502;2023-03-20T15:12:27;6.47;;;2.58;;
13981;SDS011;7065;50.880;5.502;2023-03-20T15:15:03;6.40;;;3.00;;
13981;SDS011;7065;50.880;5.502;2023-03-20T15:17:37;8.90;;;3.13;;
13981;SDS011;7065;50.880;5.502;2023-03-20T15:22:50;8.57;;;3.25;;
13981;SDS011;7065;50.880;5.502;2023-03-20T15:25:17;6.43;;;2.85;;
13981;SDS011;7065;50.880;5.502;2023-03-20T15:27:44;4.10;;;2.90;;
13981;SDS011;7065;50.880;5.502;2023-03-20T15:30:12;8.38;;;3.00;;
13981;SDS011;7065;50.880;5.502;2023-03-20T15:32:40;7.43;;;2.83;;
13981;SDS011;7065;50.880;5.502;2023-03-20T15:35:11;6.53;;;2.85;;
13981;SDS011;7065;50.880;5.502;2023-03-20T15:37:39;7.28;;;3.08;;
13981;SDS011;7065;50.880;5.502;2023-03-20T15:40:09;8.50;;;3.15;;
13981;SDS011;7065;50.880;5.502;2023-03-20T15:42:54;10.20;;;3.70;;
13981;SDS011;7065;50.880;5.502;2023-03-20T15:45:33;6.07;;;2.97;;
13981;SDS011;7065;50.880;5.502;2023-03-20T15:50:25;7.95;;;3.22;;
13981;SDS011;7065;50.880;5.502;2023-03-20T15:52:55;9.00;;;3.72;;
13981;SDS011;7065;50.880;5.502;2023-03-20T15:55:22;8.65;;;3.58;;
13981;SDS011;7065;50.880;5.502;2023-03-20T15:57:48;6.78;;;3.25;;
13981;SDS011;7065;50.880;5.502;2023-03-20T16:00:30;10.95;;;3.90;;
13981;SDS011;7065;50.880;5.502;2023-03-20T16:03:07;9.02;;;3.40;;
13981;SDS011;7065;50.880;5.502;2023-03-20T16:05:35;6.90;;;3.13;;
13981;SDS011;7065;50.880;5.502;2023-03-20T16:08:12;7.93;;;3.08;;
13981;SDS011;7065;50.880;5.502;2023-03-20T16:10:42;9.77;;;3.35;;
13981;SDS011;7065;50.880;5.502;2023-03-20T16:13:10;8.63;;;3.83;;
13981;SDS011;7065;50.880;5.502;2023-03-20T16:15:41;5.43;;;3.33;;
13981;SDS011;7065;50.880;5.502;2023-03-20T16:18:07;7.32;;;3.20;;
13981;SDS011;7065;50.880;5.502;2023-03-20T16:20:39;8.45;;;3.15;;
13981;SDS011;7065;50.880;5.502;2023-03-20T16:23:13;11.05;;;3.97;;
13981;SDS011;7065;50.880;5.502;2023-03-20T16:25:55;6.93;;;2.97;;
13981;SDS011;7065;50.880;5.502;2023-03-20T16:28:24;7.07;;;3.33;;
13981;SDS011;7065;50.880;5.502;2023-03-20T16:30:51;8.48;;;3.40;;
13981;SDS011;7065;50.880;5.502;2023-03-20T16:33:17;8.25;;;3.80;;
13981;SDS011;7065;50.880;5.502;2023-03-20T16:35:45;7.30;;;3.28;;
13981;SDS011;7065;50.880;5.502;2023-03-20T16:38:23;11.02;;;3.17;;
13981;SDS011;7065;50.880;5.502;2023-03-20T16:40:52;9.65;;;3.55;;
13981;SDS011;7065;50.880;5.502;2023-03-20T16:43:21;9.48;;;3.63;;
13981;SDS011;7065;50.880;5.502;2023-03-20T16:45:54;8.93;;;3.58;;
13981;SDS011;7065;50.880;5.502;2023-03-20T16:50:47;9.57;;;3.45;;
13981;SDS011;7065;50.880;5.502;2023-03-20T16:53:21;8.27;;;3.97;;
13981;SDS011;7065;50.880;5.502;2023-03-20T16:55:49;8.70;;;3.78;;
13981;SDS011;7065;50.880;5.502;2023-03-20T16:58:22;9.10;;;3.78;;
13981;SDS011;7065;50.880;5.502;2023-03-20T17:00:52;12.25;;;4.25;;
13981;SDS011;7065;50.880;5.502;2023-03-20T17:03:27;9.73;;;4.10;;
13981;SDS011;7065;50.880;5.502;2023-03-20T17:08:50;7.03;;;4.10;;
13981;SDS011;7065;50.880;5.502;2023-03-20T17:13:57;9.35;;;4.45;;
13981;SDS011;7065;50.880;5.502;2023-03-20T17:16:23;11.88;;;5.20;;
13981;SDS011;7065;50.880;5.502;2023-03-20T17:21:25;11.15;;;4.05;;
13981;SDS011;7065;50.880;5.502;2023-03-20T17:23:52;8.57;;;4.35;;
13981;SDS011;7065;50.880;5.502;2023-03-20T17:26:18;9.38;;;4.07;;
13981;SDS011;7065;50.880;5.502;2023-03-20T17:28:44;8.50;;;4.82;;
13981;SDS011;7065;50.880;5.502;2023-03-20T17:31:13;11.07;;;4.28;;
13981;SDS011;7065;50.880;5.502;2023-03-20T17:33:40;9.50;;;5.07;;
13981;SDS011;7065;50.880;5.502;2023-03-20T17:36:29;9.77;;;5.20;;
13981;SDS011;7065;50.880;5.502;2023-03-20T17:38:56;9.93;;;4.60;;
13981;SDS011;7065;50.880;5.502;2023-03-20T17:41:22;14.85;;;4.68;;
13981;SDS011;7065;50.880;5.502;2023-03-20T17:43:49;11.95;;;4.30;;
13981;SDS011;7065;50.880;5.502;2023-03-20T17:46:25;13.18;;;5.20;;
13981;SDS011;7065;50.880;5.502;2023-03-20T17:49:03;13.80;;;5.25;;
13981;SDS011;7065;50.880;5.502;2023-03-20T17:51:31;11.07;;;5.07;;
13981;SDS011;7065;50.880;5.502;2023-03-20T17:53:57;7.70;;;4.45;;
13981;SDS011;7065;50.880;5.502;2023-03-20T17:56:24;10.63;;;5.18;;
13981;SDS011;7065;50.880;5.502;2023-03-20T17:58:56;13.60;;;5.38;;
13981;SDS011;7065;50.880;5.502;2023-03-20T18:01:23;15.27;;;5.80;;
13981;SDS011;7065;50.880;5.502;2023-03-20T18:03:51;11.38;;;5.75;;
13981;SDS011;7065;50.880;5.502;2023-03-20T18:06:22;12.20;;;5.57;;
13981;SDS011;7065;50.880;5.502;2023-03-20T18:08:51;11.10;;;5.47;;